sensor_id;sensor_type;location;lat;lon;timestamp;pressure;altitude;pressure_sealevel;temperature;humidity
21826;BME280;11075;47.944;11.776;2023-06-10T00:00:42;94366.97;;;10.35;38.94
21826;BME280;11075;47.944;11.776;2023-06-10T00:03:10;94358.19;;;9.34;40.91
21826;BME280;11075;47.944;11.776;2023-06-10T00:05:38;94375.91;;;9.59;40.85
21826;BME280;11075;47.944;11.776;2023-06-10T00:08:08;94378.09;;;8.84;42.69
21826;BME280;11075;47.944;11.776;2023-06-10T00:10:36;94369.63;;;9.31;42.18
21826;BME280;11075;47.944;11.776;2023-06-10T00:13:06;94363.00;;;9.16;41.49
21826;BME280;11075;47.944;11.776;2023-06-10T00:15:37;94359.31;;;8.96;42.29
21826;BME280;11075;47.944;11.776;2023-06-10T00:18:04;94358.66;;;9.24;41.61
21826;BME280;11075;47.944;11.776;2023-06-10T00:20:32;94362.66;;;9.42;41.03
21826;BME280;11075;47.944;11.776;2023-06-10T00:22:59;94359.25;;;8.72;42.31
21826;BME280;11075;47.944;11.776;2023-06-10T00:25:29;94361.66;;;9.46;41.43
21826;BME280;11075;47.944;11.776;2023-06-10T00:27:55;94367.66;;;10.32;38.97
21826;BME280;11075;47.944;11.776;2023-06-10T00:30:22;94368.97;;;10.38;39.99
21826;BME280;11075;47.944;11.776;2023-06-10T00:32:49;94369.50;;;9.27;41.78
21826;BME280;11075;47.944;11.776;2023-06-10T00:35:16;94370.94;;;9.49;42.03
21826;BME280;11075;47.944;11.776;2023-06-10T00:37:43;94362.22;;;9.03;42.52
21826;BME280;11075;47.944;11.776;2023-06-10T00:40:10;94370.38;;;8.49;43.44
21826;BME280;11075;47.944;11.776;2023-06-10T00:42:37;94377.78;;;7.99;44.74
21826;BME280;11075;47.944;11.776;2023-06-10T00:45:05;94380.97;;;7.92;44.91
21826;BME280;11075;47.944;11.776;2023-06-10T00:47:35;94373.44;;;8.27;44.29
21826;BME280;11075;47.944;11.776;2023-06-10T00:50:02;94375.41;;;8.18;44.56
21826;BME280;11075;47.944;11.776;2023-06-10T00:52:30;94378.59;;;8.32;44.18
21826;BME280;11075;47.944;11.776;2023-06-10T00:54:57;94376.41;;;8.79;42.89
21826;BME280;11075;47.944;11.776;2023-06-10T00:57:26;94375.75;;;8.16;44.36
21826;BME280;11075;47.944;11.776;2023-06-10T00:59:53;94370.22;;;8.79;43.12
21826;BME280;11075;47.944;11.776;2023-06-10T01:02:21;94383.72;;;8.25;44.39
21826;BME280;11075;47.944;11.776;2023-06-10T01:04:47;94378.34;;;8.25;44.28
21826;BME280;11075;47.944;11.776;2023-06-10T01:07:29;94373.97;;;8.86;42.98
21826;BME280;11075;47.944;11.776;2023-06-10T01:10:05;94374.09;;;8.57;43.32
21826;BME280;11075;47.944;11.776;2023-06-10T01:12:43;94369.97;;;9.17;41.99
21826;BME280;11075;47.944;11.776;2023-06-10T01:15:16;94373.13;;;8.74;42.98
21826;BME280;11075;47.944;11.776;2023-06-10T01:18:01;94379.59;;;8.61;43.45
21826;BME280;11075;47.944;11.776;2023-06-10T01:20:32;94379.28;;;8.74;43.72
21826;BME280;11075;47.944;11.776;2023-06-10T01:22:59;94372.25;;;8.37;43.97
21826;BME280;11075;47.944;11.776;2023-06-10T01:25:28;94382.31;;;8.40;43.89
21826;BME280;11075;47.944;11.776;2023-06-10T01:28:07;94375.88;;;8.53;43.67
21826;BME280;11075;47.944;11.776;2023-06-10T01:30:45;94376.97;;;8.40;43.85
21826;BME280;11075;47.944;11.776;2023-06-10T01:33:17;94375.81;;;8.08;45.03
21826;BME280;11075;47.944;11.776;2023-06-10T01:35:46;94374.44;;;8.55;44.10
21826;BME280;11075;47.944;11.776;2023-06-10T01:38:14;94374.44;;;8.55;43.40
21826;BME280;11075;47.944;11.776;2023-06-10T01:40:42;94377.25;;;8.59;43.81
21826;BME280;11075;47.944;11.776;2023-06-10T01:43:09;94373.31;;;9.02;42.80
21826;BME280;11075;47.944;11.776;2023-06-10T01:45:36;94371.56;;;8.73;43.96
21826;BME280;11075;47.944;11.776;2023-06-10T01:48:03;94368.38;;;8.46;44.39
21826;BME280;11075;47.944;11.776;2023-06-10T01:50:30;94382.28;;;8.61;44.02
21826;BME280;11075;47.944;11.776;2023-06-10T01:52:58;94376.16;;;8.72;43.98
21826;BME280;11075;47.944;11.776;2023-06-10T01:55:26;94380.38;;;9.31;41.97
21826;BME280;11075;47.944;11.776;2023-06-10T01:57:53;94376.81;;;8.69;43.62
21826;BME280;11075;47.944;11.776;2023-06-10T02:00:20;94381.44;;;8.81;42.61
21826;BME280;11075;47.944;11.776;2023-06-10T02:02:47;94382.06;;;9.23;42.19
21826;BME280;11075;47.944;11.776;2023-06-10T02:05:14;94385.63;;;9.39;41.58
21826;BME280;11075;47.944;11.776;2023-06-10T02:07:41;94386.06;;;8.93;41.87
21826;BME280;11075;47.944;11.776;2023-06-10T02:10:08;94385.94;;;8.89;41.33
21826;BME280;11075;47.944;11.776;2023-06-10T02:12:35;94375.97;;;8.44;41.87
21826;BME280;11075;47.944;11.776;2023-06-10T02:15:02;94387.31;;;9.68;39.78
21826;BME280;11075;47.944;11.776;2023-06-10T02:17:29;94381.16;;;9.07;41.07
21826;BME280;11075;47.944;11.776;2023-06-10T02:19:56;94379.16;;;10.05;39.83
21826;BME280;11075;47.944;11.776;2023-06-10T02:22:23;94376.25;;;9.58;40.20
21826;BME280;11075;47.944;11.776;2023-06-10T02:24:50;94381.06;;;10.04;39.27
21826;BME280;11075;47.944;11.776;2023-06-10T02:27:18;94375.66;;;9.64;39.60
21826;BME280;11075;47.944;11.776;2023-06-10T02:29:45;94373.44;;;9.54;40.50
21826;BME280;11075;47.944;11.776;2023-06-10T02:32:12;94385.31;;;9.65;40.21
21826;BME280;11075;47.944;11.776;2023-06-10T02:34:40;94384.84;;;9.51;39.40
21826;BME280;11075;47.944;11.776;2023-06-10T02:37:07;94388.66;;;9.50;39.74
21826;BME280;11075;47.944;11.776;2023-06-10T02:39:34;94378.88;;;8.84;40.82
21826;BME280;11075;47.944;11.776;2023-06-10T02:42:05;94393.69;;;9.39;39.91
21826;BME280;11075;47.944;11.776;2023-06-10T02:44:33;94381.81;;;9.28;39.98
21826;BME280;11075;47.944;11.776;2023-06-10T02:47:00;94385.25;;;8.80;40.67
21826;BME280;11075;47.944;11.776;2023-06-10T02:49:27;94379.16;;;8.71;40.54
21826;BME280;11075;47.944;11.776;2023-06-10T02:51:55;94378.22;;;9.00;40.24
21826;BME280;11075;47.944;11.776;2023-06-10T02:54:23;94388.22;;;9.36;39.34
21826;BME280;11075;47.944;11.776;2023-06-10T02:56:52;94391.69;;;9.48;39.17
21826;BME280;11075;47.944;11.776;2023-06-10T02:59:24;94397.50;;;9.02;39.54
21826;BME280;11075;47.944;11.776;2023-06-10T03:01:51;94387.06;;;8.88;39.99
21826;BME280;11075;47.944;11.776;2023-06-10T03:04:18;94389.44;;;8.56;40.38
21826;BME280;11075;47.944;11.776;2023-06-10T03:06:53;94388.31;;;9.03;39.60
21826;BME280;11075;47.944;11.776;2023-06-10T03:09:25;94391.78;;;9.03;39.43
21826;BME280;11075;47.944;11.776;2023-06-10T03:11:56;94387.19;;;8.59;40.45
21826;BME280;11075;47.944;11.776;2023-06-10T03:14:23;94400.19;;;8.03;41.23
21826;BME280;11075;47.944;11.776;2023-06-10T03:16:51;94402.31;;;8.30;41.03
21826;BME280;11075;47.944;11.776;2023-06-10T03:19:19;94403.66;;;9.02;39.64
21826;BME280;11075;47.944;11.776;2023-06-10T03:21:50;94405.31;;;8.95;39.03
21826;BME280;11075;47.944;11.776;2023-06-10T03:24:21;94402.56;;;9.28;38.72
21826;BME280;11075;47.944;11.776;2023-06-10T03:26:48;94396.84;;;8.72;40.16
21826;BME280;11075;47.944;11.776;2023-06-10T03:29:16;94401.84;;;8.94;39.54
21826;BME280;11075;47.944;11.776;2023-06-10T03:31:43;94398.63;;;8.35;40.98
21826;BME280;11075;47.944;11.776;2023-06-10T03:34:11;94405.28;;;8.49;40.17
21826;BME280;11075;47.944;11.776;2023-06-10T03:36:38;94415.94;;;8.91;39.61
21826;BME280;11075;47.944;11.776;2023-06-10T03:39:08;94415.41;;;9.10;38.99
21826;BME280;11075;47.944;11.776;2023-06-10T03:41:36;94416.44;;;8.72;39.29
21826;BME280;11075;47.944;11.776;2023-06-10T03:44:04;94412.78;;;7.81;42.07
21826;BME280;11075;47.944;11.776;2023-06-10T03:46:30;94418.69;;;8.16;41.60
21826;BME280;11075;47.944;11.776;2023-06-10T03:48:57;94412.13;;;8.80;40.06
21826;BME280;11075;47.944;11.776;2023-06-10T03:51:29;94423.72;;;9.41;38.15
21826;BME280;11075;47.944;11.776;2023-06-10T03:53:56;94422.28;;;9.44;38.62
21826;BME280;11075;47.944;11.776;2023-06-10T03:56:23;94426.25;;;9.01;39.50
21826;BME280;11075;47.944;11.776;2023-06-10T03:58:50;94434.13;;;9.31;38.90
21826;BME280;11075;47.944;11.776;2023-06-10T04:01:17;94420.44;;;8.99;39.30
21826;BME280;11075;47.944;11.776;2023-06-10T04:03:48;94422.44;;;8.90;39.96
21826;BME280;11075;47.944;11.776;2023-06-10T04:06:15;94420.59;;;9.27;39.19
21826;BME280;11075;47.944;11.776;2023-06-10T04:08:42;94417.63;;;8.96;39.84
21826;BME280;11075;47.944;11.776;2023-06-10T04:11:09;94409.66;;;8.87;40.53
21826;BME280;11075;47.944;11.776;2023-06-10T04:13:36;94431.78;;;9.53;39.06
21826;BME280;11075;47.944;11.776;2023-06-10T04:16:03;94430.34;;;9.68;38.77
21826;BME280;11075;47.944;11.776;2023-06-10T04:18:30;94435.72;;;9.80;38.24
21826;BME280;11075;47.944;11.776;2023-06-10T04:21:02;94444.47;;;10.42;37.08
21826;BME280;11075;47.944;11.776;2023-06-10T04:23:31;94426.03;;;10.04;38.31
21826;BME280;11075;47.944;11.776;2023-06-10T04:25:58;94439.56;;;9.55;39.47
21826;BME280;11075;47.944;11.776;2023-06-10T04:28:26;94443.97;;;9.02;40.40
21826;BME280;11075;47.944;11.776;2023-06-10T04:30:53;94445.91;;;9.87;39.04
21826;BME280;11075;47.944;11.776;2023-06-10T04:33:21;94453.78;;;11.16;36.84
21826;BME280;11075;47.944;11.776;2023-06-10T04:35:47;94443.28;;;10.83;37.62
21826;BME280;11075;47.944;11.776;2023-06-10T04:38:15;94444.31;;;10.51;38.54
21826;BME280;11075;47.944;11.776;2023-06-10T04:40:43;94447.06;;;10.66;38.49
21826;BME280;11075;47.944;11.776;2023-06-10T04:43:12;94463.03;;;11.31;37.42
21826;BME280;11075;47.944;11.776;2023-06-10T04:45:40;94457.72;;;11.34;37.72
21826;BME280;11075;47.944;11.776;2023-06-10T04:48:06;94450.09;;;10.65;38.94
21826;BME280;11075;47.944;11.776;2023-06-10T04:50:34;94448.94;;;11.53;37.85
21826;BME280;11075;47.944;11.776;2023-06-10T04:53:01;94465.88;;;11.22;38.80
21826;BME280;11075;47.944;11.776;2023-06-10T04:55:28;94454.53;;;12.30;36.99
21826;BME280;11075;47.944;11.776;2023-06-10T04:57:56;94460.34;;;12.13;37.16
21826;BME280;11075;47.944;11.776;2023-06-10T05:00:22;94450.06;;;12.19;36.68
21826;BME280;11075;47.944;11.776;2023-06-10T05:02:49;94460.03;;;11.99;37.59
21826;BME280;11075;47.944;11.776;2023-06-10T05:05:17;94459.97;;;11.80;38.52
21826;BME280;11075;47.944;11.776;2023-06-10T05:07:44;94459.88;;;11.13;39.41
21826;BME280;11075;47.944;11.776;2023-06-10T05:10:10;94448.53;;;12.56;37.83
21826;BME280;11075;47.944;11.776;2023-06-10T05:12:39;94460.63;;;13.01;36.67
21826;BME280;11075;47.944;11.776;2023-06-10T05:15:07;94456.25;;;13.39;36.01
21826;BME280;11075;47.944;11.776;2023-06-10T05:17:35;94460.22;;;13.67;35.95
21826;BME280;11075;47.944;11.776;2023-06-10T05:20:02;94460.75;;;13.54;36.66
21826;BME280;11075;47.944;11.776;2023-06-10T05:22:30;94458.41;;;12.87;38.64
21826;BME280;11075;47.944;11.776;2023-06-10T05:24:56;94462.09;;;13.63;37.09
21826;BME280;11075;47.944;11.776;2023-06-10T05:27:23;94457.56;;;13.02;37.82
21826;BME280;11075;47.944;11.776;2023-06-10T05:29:51;94462.25;;;14.23;36.08
21826;BME280;11075;47.944;11.776;2023-06-10T05:32:18;94468.03;;;12.46;38.89
21826;BME280;11075;47.944;11.776;2023-06-10T05:34:45;94467.50;;;13.18;38.36
21826;BME280;11075;47.944;11.776;2023-06-10T05:37:12;94464.69;;;14.32;36.42
21826;BME280;11075;47.944;11.776;2023-06-10T05:39:39;94466.91;;;12.31;40.32
21826;BME280;11075;47.944;11.776;2023-06-10T05:42:07;94466.69;;;13.86;37.95
21826;BME280;11075;47.944;11.776;2023-06-10T05:44:35;94458.88;;;14.93;36.82
21826;BME280;11075;47.944;11.776;2023-06-10T05:47:02;94466.19;;;14.59;37.43
21826;BME280;11075;47.944;11.776;2023-06-10T05:49:29;94461.00;;;14.21;37.75
21826;BME280;11075;47.944;11.776;2023-06-10T05:51:56;94463.94;;;15.36;36.44
21826;BME280;11075;47.944;11.776;2023-06-10T05:54:25;94453.63;;;15.48;35.96
21826;BME280;11075;47.944;11.776;2023-06-10T05:56:55;94449.56;;;14.94;36.53
21826;BME280;11075;47.944;11.776;2023-06-10T05:59:22;94455.66;;;15.21;36.43
21826;BME280;11075;47.944;11.776;2023-06-10T06:01:49;94451.91;;;15.33;36.44
21826;BME280;11075;47.944;11.776;2023-06-10T06:04:16;94450.88;;;14.14;38.87
21826;BME280;11075;47.944;11.776;2023-06-10T06:06:43;94458.78;;;15.64;36.64
21826;BME280;11075;47.944;11.776;2023-06-10T06:09:10;94452.56;;;14.22;38.48
21826;BME280;11075;47.944;11.776;2023-06-10T06:11:37;94456.53;;;15.73;37.14
21826;BME280;11075;47.944;11.776;2023-06-10T06:14:04;94450.22;;;15.62;36.61
21826;BME280;11075;47.944;11.776;2023-06-10T06:16:32;94451.03;;;17.08;35.19
21826;BME280;11075;47.944;11.776;2023-06-10T06:18:59;94452.56;;;15.23;38.34
21826;BME280;11075;47.944;11.776;2023-06-10T06:21:26;94460.41;;;17.14;34.91
21826;BME280;11075;47.944;11.776;2023-06-10T06:23:52;94463.47;;;16.22;36.83
21826;BME280;11075;47.944;11.776;2023-06-10T06:26:19;94468.75;;;16.59;35.91
21826;BME280;11075;47.944;11.776;2023-06-10T06:28:47;94452.97;;;17.04;34.90
21826;BME280;11075;47.944;11.776;2023-06-10T06:31:14;94461.25;;;17.68;34.01
21826;BME280;11075;47.944;11.776;2023-06-10T06:33:41;94461.06;;;16.75;36.13
21826;BME280;11075;47.944;11.776;2023-06-10T06:36:07;94472.84;;;16.32;36.44
21826;BME280;11075;47.944;11.776;2023-06-10T06:38:34;94458.00;;;16.95;36.16
21826;BME280;11075;47.944;11.776;2023-06-10T06:41:02;94443.31;;;16.27;36.66
21826;BME280;11075;47.944;11.776;2023-06-10T06:43:29;94452.59;;;17.12;35.10
21826;BME280;11075;47.944;11.776;2023-06-10T06:46:09;94468.22;;;17.37;34.72
21826;BME280;11075;47.944;11.776;2023-06-10T06:48:36;94452.97;;;16.97;34.84
21826;BME280;11075;47.944;11.776;2023-06-10T06:51:03;94457.59;;;16.85;35.76
21826;BME280;11075;47.944;11.776;2023-06-10T06:53:30;94464.22;;;16.92;36.43
21826;BME280;11075;47.944;11.776;2023-06-10T06:55:59;94463.22;;;17.82;33.90
21826;BME280;11075;47.944;11.776;2023-06-10T06:58:26;94471.00;;;17.76;34.72
21826;BME280;11075;47.944;11.776;2023-06-10T07:00:53;94474.91;;;17.71;34.15
21826;BME280;11075;47.944;11.776;2023-06-10T07:03:21;94450.75;;;18.12;33.97
21826;BME280;11075;47.944;11.776;2023-06-10T07:05:48;94467.19;;;19.14;32.56
21826;BME280;11075;47.944;11.776;2023-06-10T07:08:15;94474.03;;;18.56;33.62
21826;BME280;11075;47.944;11.776;2023-06-10T07:10:42;94474.44;;;18.48;33.59
21826;BME280;11075;47.944;11.776;2023-06-10T07:13:08;94465.16;;;17.60;34.78
21826;BME280;11075;47.944;11.776;2023-06-10T07:15:38;94467.34;;;18.82;32.96
21826;BME280;11075;47.944;11.776;2023-06-10T07:18:05;94465.53;;;19.31;32.28
21826;BME280;11075;47.944;11.776;2023-06-10T07:20:32;94471.19;;;18.92;32.27
21826;BME280;11075;47.944;11.776;2023-06-10T07:22:59;94459.91;;;19.56;32.51
21826;BME280;11075;47.944;11.776;2023-06-10T07:25:26;94458.47;;;19.92;32.07
21826;BME280;11075;47.944;11.776;2023-06-10T07:27:53;94470.28;;;19.82;31.80
21826;BME280;11075;47.944;11.776;2023-06-10T07:30:19;94460.09;;;19.86;32.03
21826;BME280;11075;47.944;11.776;2023-06-10T07:32:46;94467.88;;;20.32;31.11
21826;BME280;11075;47.944;11.776;2023-06-10T07:35:13;94463.09;;;18.63;33.89
21826;BME280;11075;47.944;11.776;2023-06-10T07:37:40;94466.69;;;18.35;33.68
21826;BME280;11075;47.944;11.776;2023-06-10T07:40:07;94475.63;;;19.96;31.34
21826;BME280;11075;47.944;11.776;2023-06-10T07:42:35;94474.56;;;19.83;32.11
21826;BME280;11075;47.944;11.776;2023-06-10T07:45:05;94469.34;;;20.78;31.24
21826;BME280;11075;47.944;11.776;2023-06-10T07:47:33;94456.56;;;19.34;31.71
21826;BME280;11075;47.944;11.776;2023-06-10T07:50:01;94474.31;;;20.53;31.21
21826;BME280;11075;47.944;11.776;2023-06-10T07:52:28;94492.41;;;21.11;29.28
21826;BME280;11075;47.944;11.776;2023-06-10T07:54:55;94460.63;;;18.97;32.48
21826;BME280;11075;47.944;11.776;2023-06-10T07:57:22;94469.75;;;20.77;31.08
21826;BME280;11075;47.944;11.776;2023-06-10T07:59:48;94483.28;;;21.21;29.53
21826;BME280;11075;47.944;11.776;2023-06-10T08:02:15;94460.69;;;21.14;30.62
21826;BME280;11075;47.944;11.776;2023-06-10T08:04:42;94477.22;;;20.73;30.33
21826;BME280;11075;47.944;11.776;2023-06-10T08:07:09;94465.97;;;19.85;32.33
21826;BME280;11075;47.944;11.776;2023-06-10T08:09:36;94490.81;;;20.83;29.36
21826;BME280;11075;47.944;11.776;2023-06-10T08:12:03;94480.50;;;20.19;28.97
21826;BME280;11075;47.944;11.776;2023-06-10T08:14:30;94476.28;;;21.74;29.01
21826;BME280;11075;47.944;11.776;2023-06-10T08:16:57;94472.06;;;20.78;29.21
21826;BME280;11075;47.944;11.776;2023-06-10T08:19:23;94478.22;;;21.50;28.62
21826;BME280;11075;47.944;11.776;2023-06-10T08:21:50;94462.06;;;21.56;29.22
21826;BME280;11075;47.944;11.776;2023-06-10T08:24:17;94474.06;;;21.08;28.51
21826;BME280;11075;47.944;11.776;2023-06-10T08:26:45;94476.34;;;20.83;28.38
21826;BME280;11075;47.944;11.776;2023-06-10T08:29:12;94463.63;;;21.57;28.16
21826;BME280;11075;47.944;11.776;2023-06-10T08:31:43;94461.53;;;22.15;28.40
21826;BME280;11075;47.944;11.776;2023-06-10T08:34:10;94480.69;;;23.21;26.35
21826;BME280;11075;47.944;11.776;2023-06-10T08:36:38;94464.16;;;21.99;27.72
21826;BME280;11075;47.944;11.776;2023-06-10T08:39:05;94476.03;;;20.74;26.84
21826;BME280;11075;47.944;11.776;2023-06-10T08:41:35;94470.72;;;21.81;27.29
21826;BME280;11075;47.944;11.776;2023-06-10T08:46:35;94475.72;;;21.59;27.10
21826;BME280;11075;47.944;11.776;2023-06-10T08:49:05;94498.03;;;22.35;25.46
21826;BME280;11075;47.944;11.776;2023-06-10T08:51:35;94480.22;;;21.46;26.59
21826;BME280;11075;47.944;11.776;2023-06-10T08:54:11;94473.63;;;22.41;26.46
21826;BME280;11075;47.944;11.776;2023-06-10T08:56:42;94466.16;;;20.49;27.32
21826;BME280;11075;47.944;11.776;2023-06-10T08:59:10;94467.56;;;21.83;27.49
21826;BME280;11075;47.944;11.776;2023-06-10T09:01:38;94471.06;;;22.93;26.57
21826;BME280;11075;47.944;11.776;2023-06-10T09:04:06;94496.22;;;22.25;25.59
21826;BME280;11075;47.944;11.776;2023-06-10T09:06:33;94470.34;;;22.26;26.91
21826;BME280;11075;47.944;11.776;2023-06-10T09:09:00;94468.13;;;22.84;25.66
21826;BME280;11075;47.944;11.776;2023-06-10T09:11:29;94478.25;;;23.27;25.71
21826;BME280;11075;47.944;11.776;2023-06-10T09:13:56;94471.97;;;22.00;25.72
21826;BME280;11075;47.944;11.776;2023-06-10T09:16:24;94470.63;;;22.75;25.33
21826;BME280;11075;47.944;11.776;2023-06-10T09:18:52;94483.16;;;23.71;25.02
21826;BME280;11075;47.944;11.776;2023-06-10T09:21:22;94474.56;;;23.33;25.42
21826;BME280;11075;47.944;11.776;2023-06-10T09:23:50;94474.13;;;24.20;24.03
21826;BME280;11075;47.944;11.776;2023-06-10T09:26:18;94460.97;;;23.78;25.25
21826;BME280;11075;47.944;11.776;2023-06-10T09:28:48;94454.19;;;23.83;25.45
21826;BME280;11075;47.944;11.776;2023-06-10T09:31:15;94436.19;;;22.70;26.95
21826;BME280;11075;47.944;11.776;2023-06-10T09:33:45;94444.44;;;23.46;26.33
21826;BME280;11075;47.944;11.776;2023-06-10T09:36:21;94463.16;;;22.55;26.03
21826;BME280;11075;47.944;11.776;2023-06-10T09:38:49;94430.75;;;21.57;27.52
21826;BME280;11075;47.944;11.776;2023-06-10T09:41:17;94441.50;;;23.37;26.91
21826;BME280;11075;47.944;11.776;2023-06-10T09:43:45;94495.25;;;25.26;24.47
21826;BME280;11075;47.944;11.776;2023-06-10T09:46:17;94467.00;;;23.73;25.50
21826;BME280;11075;47.944;11.776;2023-06-10T09:48:46;94454.44;;;21.44;26.63
21826;BME280;11075;47.944;11.776;2023-06-10T09:51:14;94468.50;;;21.96;25.63
21826;BME280;11075;47.944;11.776;2023-06-10T09:53:41;94479.47;;;22.86;24.79
21826;BME280;11075;47.944;11.776;2023-06-10T09:56:08;94509.53;;;25.62;22.78
21826;BME280;11075;47.944;11.776;2023-06-10T09:58:39;94518.50;;;24.83;22.27
21826;BME280;11075;47.944;11.776;2023-06-10T10:01:11;94461.69;;;24.44;24.67
21826;BME280;11075;47.944;11.776;2023-06-10T10:03:46;94477.97;;;24.38;23.19
21826;BME280;11075;47.944;11.776;2023-06-10T10:06:14;94488.81;;;24.29;22.96
21826;BME280;11075;47.944;11.776;2023-06-10T10:08:42;94485.72;;;24.27;23.21
21826;BME280;11075;47.944;11.776;2023-06-10T10:11:10;94512.22;;;25.91;21.46
21826;BME280;11075;47.944;11.776;2023-06-10T10:13:38;94495.28;;;23.54;22.92
21826;BME280;11075;47.944;11.776;2023-06-10T10:16:11;94483.41;;;25.67;23.05
21826;BME280;11075;47.944;11.776;2023-06-10T10:18:43;94484.50;;;25.95;22.11
21826;BME280;11075;47.944;11.776;2023-06-10T10:21:13;94497.41;;;25.72;22.65
21826;BME280;11075;47.944;11.776;2023-06-10T10:24:11;94478.63;;;25.42;22.80
21826;BME280;11075;47.944;11.776;2023-06-10T10:26:35;94489.03;;;25.63;22.02
21826;BME280;11075;47.944;11.776;2023-06-10T10:31:42;94484.09;;;24.30;23.02
21826;BME280;11075;47.944;11.776;2023-06-10T10:34:21;94512.59;;;26.75;20.26
21826;BME280;11075;47.944;11.776;2023-06-10T10:36:48;94489.88;;;26.11;21.39
21826;BME280;11075;47.944;11.776;2023-06-10T10:39:16;94468.47;;;24.56;22.57
21826;BME280;11075;47.944;11.776;2023-06-10T10:41:45;94473.97;;;25.26;22.58
21826;BME280;11075;47.944;11.776;2023-06-10T10:44:13;94447.38;;;24.20;23.90
21826;BME280;11075;47.944;11.776;2023-06-10T10:46:45;94482.44;;;26.68;21.85
21826;BME280;11075;47.944;11.776;2023-06-10T10:49:15;94433.97;;;24.06;24.38
21826;BME280;11075;47.944;11.776;2023-06-10T10:52:02;94471.03;;;25.46;22.49
21826;BME280;11075;47.944;11.776;2023-06-10T10:54:33;94455.34;;;25.18;23.47
21826;BME280;11075;47.944;11.776;2023-06-10T10:57:32;94452.81;;;25.36;23.98
21826;BME280;11075;47.944;11.776;2023-06-10T10:59:58;94427.81;;;22.97;24.86
21826;BME280;11075;47.944;11.776;2023-06-10T11:02:36;94449.19;;;24.56;24.22
21826;BME280;11075;47.944;11.776;2023-06-10T11:05:06;94435.13;;;24.95;24.80
21826;BME280;11075;47.944;11.776;2023-06-10T11:07:35;94435.16;;;24.66;24.72
21826;BME280;11075;47.944;11.776;2023-06-10T11:10:13;94408.69;;;22.74;26.52
21826;BME280;11075;47.944;11.776;2023-06-10T11:15:13;94486.91;;;26.18;22.03
21826;BME280;11075;47.944;11.776;2023-06-10T11:18:09;94459.41;;;24.26;23.16
21826;BME280;11075;47.944;11.776;2023-06-10T11:29:26;94473.34;;;24.93;22.69
21826;BME280;11075;47.944;11.776;2023-06-10T11:34:15;94457.00;;;25.15;22.87
21826;BME280;11075;47.944;11.776;2023-06-10T11:36:43;94489.41;;;24.82;21.56
21826;BME280;11075;47.944;11.776;2023-06-10T11:39:12;94472.22;;;26.09;21.63
21826;BME280;11075;47.944;11.776;2023-06-10T11:41:39;94489.78;;;25.89;20.37
21826;BME280;11075;47.944;11.776;2023-06-10T11:44:11;94467.06;;;25.72;21.72
21826;BME280;11075;47.944;11.776;2023-06-10T11:46:43;94480.97;;;25.82;20.49
21826;BME280;11075;47.944;11.776;2023-06-10T11:49:11;94454.19;;;24.61;22.24
21826;BME280;11075;47.944;11.776;2023-06-10T11:51:40;94477.34;;;25.97;20.65
21826;BME280;11075;47.944;11.776;2023-06-10T11:54:08;94482.38;;;26.12;20.46
21826;BME280;11075;47.944;11.776;2023-06-10T11:56:35;94468.63;;;25.48;20.75
21826;BME280;11075;47.944;11.776;2023-06-10T11:59:05;94457.03;;;23.79;21.86
21826;BME280;11075;47.944;11.776;2023-06-10T12:01:35;94447.06;;;26.07;21.14
21826;BME280;11075;47.944;11.776;2023-06-10T12:04:08;94473.00;;;24.91;20.61
21826;BME280;11075;47.944;11.776;2023-06-10T12:06:49;94472.38;;;25.67;19.87
21826;BME280;11075;47.944;11.776;2023-06-10T12:09:29;94484.06;;;25.58;19.28
21826;BME280;11075;47.944;11.776;2023-06-10T12:14:54;94453.13;;;26.14;20.15
21826;BME280;11075;47.944;11.776;2023-06-10T12:20:00;94424.69;;;25.92;21.42
21826;BME280;11075;47.944;11.776;2023-06-10T12:22:42;94441.03;;;25.23;20.65
21826;BME280;11075;47.944;11.776;2023-06-10T12:25:10;94422.81;;;25.13;21.70
21826;BME280;11075;47.944;11.776;2023-06-10T12:27:40;94438.94;;;25.39;21.02
21826;BME280;11075;47.944;11.776;2023-06-10T12:30:23;94441.53;;;27.19;20.05
21826;BME280;11075;47.944;11.776;2023-06-10T12:32:51;94455.16;;;25.76;20.31
21826;BME280;11075;47.944;11.776;2023-06-10T12:35:31;94451.59;;;25.88;20.38
21826;BME280;11075;47.944;11.776;2023-06-10T12:38:02;94448.06;;;27.13;19.60
21826;BME280;11075;47.944;11.776;2023-06-10T12:40:32;94445.63;;;27.77;19.24
21826;BME280;11075;47.944;11.776;2023-06-10T12:43:00;94434.28;;;26.00;20.13
21826;BME280;11075;47.944;11.776;2023-06-10T12:45:31;94433.09;;;25.25;20.60
21826;BME280;11075;47.944;11.776;2023-06-10T12:48:16;94412.84;;;26.04;20.79
21826;BME280;11075;47.944;11.776;2023-06-10T12:50:44;94427.13;;;25.26;20.41
21826;BME280;11075;47.944;11.776;2023-06-10T12:53:11;94440.06;;;26.27;19.95
21826;BME280;11075;47.944;11.776;2023-06-10T12:55:38;94410.91;;;24.61;21.34
21826;BME280;11075;47.944;11.776;2023-06-10T12:58:05;94413.00;;;25.12;21.47
21826;BME280;11075;47.944;11.776;2023-06-10T13:00:32;94373.25;;;24.13;24.19
21826;BME280;11075;47.944;11.776;2023-06-10T13:03:01;94381.97;;;25.84;22.65
21826;BME280;11075;47.944;11.776;2023-06-10T13:05:30;94404.84;;;25.21;22.56
21826;BME280;11075;47.944;11.776;2023-06-10T13:07:57;94349.44;;;23.29;25.95
21826;BME280;11075;47.944;11.776;2023-06-10T13:10:24;94375.69;;;23.95;24.40
21826;BME280;11075;47.944;11.776;2023-06-10T13:12:52;94376.75;;;25.26;24.92
21826;BME280;11075;47.944;11.776;2023-06-10T13:15:21;94385.41;;;24.44;24.71
21826;BME280;11075;47.944;11.776;2023-06-10T13:17:48;94377.97;;;25.50;25.19
21826;BME280;11075;47.944;11.776;2023-06-10T13:20:17;94392.44;;;24.45;24.42
21826;BME280;11075;47.944;11.776;2023-06-10T13:22:45;94388.28;;;24.54;24.74
21826;BME280;11075;47.944;11.776;2023-06-10T13:25:12;94365.75;;;23.36;25.00